createdAt,value
2022-08-16T00:01:33.910Z,97364.34
2022-08-16T00:04:05.065Z,97364.09
2022-08-16T00:06:36.582Z,97354.28
2022-08-16T00:09:08.063Z,97356.13
2022-08-16T00:11:40.881Z,97359.31
2022-08-16T00:14:14.929Z,97364.38
2022-08-16T00:17:00.692Z,97361.97
2022-08-16T00:19:41.298Z,97356.91
2022-08-16T00:22:13.723Z,97351.31
2022-08-16T00:24:46.578Z,97352.66
2022-08-16T00:27:17.789Z,97350.25
2022-08-16T00:29:46.608Z,97346.28
2022-08-16T00:32:17.971Z,97348.91
2022-08-16T00:34:53.024Z,97340.16
2022-08-16T00:37:57.200Z,97341.22
2022-08-16T00:40:34.826Z,97343.59
2022-08-16T00:43:11.637Z,97353.97
2022-08-16T00:46:00.120Z,97358.72
2022-08-16T00:48:43.816Z,97352.09
2022-08-16T00:51:16.144Z,97355.00
2022-08-16T00:53:49.261Z,97370.13
2022-08-16T00:56:58.185Z,97365.09
2022-08-16T00:59:15.368Z,97371.19
2022-08-16T01:01:46.123Z,97368.78
2022-08-16T01:04:30.215Z,97368.50
2022-08-16T01:07:02.345Z,97362.41
2022-08-16T01:09:37.172Z,97366.13
2022-08-16T01:12:11.392Z,97359.75
2022-08-16T01:15:01.819Z,97366.63
2022-08-16T01:17:36.562Z,97360.78
2022-08-16T01:20:23.650Z,97355.19
2022-08-16T01:23:04.687Z,97359.16
2022-08-16T01:26:00.096Z,97358.59
2022-08-16T01:28:38.968Z,97365.53
2022-08-16T01:31:16.373Z,97348.81
2022-08-16T01:33:46.159Z,97360.22
2022-08-16T01:36:19.195Z,97363.63
2022-08-16T01:38:57.135Z,97360.69
2022-08-16T01:41:31.459Z,97366.75
2022-08-16T01:44:01.556Z,97370.72
2022-08-16T01:46:39.939Z,97369.63
2022-08-16T01:49:16.779Z,97373.63
2022-08-16T01:51:53.207Z,97365.63
2022-08-16T01:54:30.509Z,97372.53
2022-08-16T01:57:03.213Z,97378.59
2022-08-16T01:59:33.148Z,97375.94
2022-08-16T02:02:03.045Z,97386.56
2022-08-16T02:04:54.541Z,97379.41
2022-08-16T02:07:25.470Z,97377.00
2022-08-16T02:09:56.850Z,97370.88
2022-08-16T02:12:50.504Z,97369.59
2022-08-16T02:15:24.876Z,97376.69
2022-08-16T02:17:55.670Z,97377.75
2022-08-16T02:20:27.898Z,97375.84
2022-08-16T02:22:57.985Z,97373.69
2022-08-16T02:25:52.898Z,97369.69
2022-08-16T02:28:23.741Z,97372.63
2022-08-16T02:30:53.769Z,97371.81
2022-08-16T02:33:43.250Z,97372.63
2022-08-16T02:36:47.624Z,97375.78
2022-08-16T02:39:04.803Z,97369.69
2022-08-16T02:41:37.260Z,97363.59
2022-08-16T02:44:13.749Z,97362.53
2022-08-16T02:46:50.371Z,97363.09
2022-08-16T02:49:58.339Z,97362.84
2022-08-16T02:52:24.394Z,97367.09
2022-08-16T02:54:58.278Z,97361.50
2022-08-16T02:57:28.861Z,97356.50
2022-08-16T03:00:00.090Z,97357.56
2022-08-16T03:02:31.929Z,97364.69
2022-08-16T03:05:01.611Z,97365.75
2022-08-16T03:07:37.263Z,97356.44
2022-08-16T03:10:10.607Z,97365.94
2022-08-16T03:12:56.070Z,97362.53
2022-08-16T03:15:27.654Z,97368.59
2022-08-16T03:17:56.560Z,97368.13
2022-08-16T03:20:32.139Z,97369.97
2022-08-16T03:23:01.946Z,97374.75
2022-08-16T03:25:44.371Z,97377.97
2022-08-16T03:28:14.120Z,97371.06
2022-08-16T03:30:47.778Z,97368.41
2022-08-16T03:33:16.962Z,97367.88
2022-08-16T03:35:46.855Z,97382.41
2022-08-16T03:38:33.158Z,97369.19
2022-08-16T03:41:05.577Z,97369.44
2022-08-16T03:43:54.689Z,97367.84
2022-08-16T03:46:47.904Z,97367.31
2022-08-16T03:49:15.769Z,97369.47
2022-08-16T03:51:45.481Z,97355.69
2022-08-16T03:54:14.734Z,97362.31
2022-08-16T03:56:57.305Z,97363.69
2022-08-16T03:59:29.405Z,97372.97
2022-08-16T04:02:01.444Z,97363.69
2022-08-16T04:04:33.007Z,97366.09
2022-08-16T04:07:04.195Z,97371.38
2022-08-16T04:09:38.515Z,97357.34
2022-08-16T04:12:10.851Z,97370.06
2022-08-16T04:14:58.353Z,97364.50
2022-08-16T04:17:28.687Z,97362.13
2022-08-16T04:19:59.732Z,97361.59
2022-08-16T04:22:30.302Z,97369.03
2022-08-16T04:24:59.669Z,97369.03
2022-08-16T04:27:28.976Z,97363.44
2022-08-16T04:30:02.834Z,97358.44
2022-08-16T04:32:35.598Z,97357.38
2022-08-16T04:35:08.600Z,97364.28
2022-08-16T04:37:42.569Z,97366.94
2022-08-16T04:40:21.891Z,97374.09
2022-08-16T04:42:55.057Z,97369.59
2022-08-16T04:45:35.748Z,97374.91
2022-08-16T04:48:07.599Z,97371.16
2022-08-16T04:50:41.726Z,97373.00
2022-08-16T04:53:12.268Z,97384.69
2022-08-16T04:55:45.464Z,97377.00
2022-08-16T04:58:44.141Z,97385.22
2022-08-16T05:01:03.300Z,97389.19
2022-08-16T05:03:42.051Z,97395.00
2022-08-16T05:06:42.323Z,97395.81
2022-08-16T05:09:16.373Z,97400.84
2022-08-16T05:11:45.148Z,97385.97
2022-08-16T05:14:20.011Z,97397.91
2022-08-16T05:16:52.295Z,97396.56
2022-08-16T05:19:22.325Z,97397.34
2022-08-16T05:21:51.521Z,97398.66
2022-08-16T05:24:22.152Z,97401.31
2022-08-16T05:26:54.628Z,97401.53
2022-08-16T05:30:01.004Z,97402.34
2022-08-16T05:32:32.298Z,97416.13
2022-08-16T05:35:07.800Z,97412.41
2022-08-16T05:37:41.242Z,97418.75
2022-08-16T05:40:13.535Z,97419.31
2022-08-16T05:42:46.016Z,97420.91
2022-08-16T05:45:22.095Z,97408.44
2022-08-16T05:48:00.217Z,97420.94
2022-08-16T05:50:33.958Z,97409.53
2022-08-16T05:53:03.326Z,97420.44
2022-08-16T05:55:35.196Z,97422.03
2022-08-16T05:58:31.424Z,97432.13
2022-08-16T06:00:58.907Z,97429.19
2022-08-16T06:03:29.511Z,97432.13
2022-08-16T06:06:00.589Z,97436.38
2022-08-16T06:08:31.625Z,97434.81
2022-08-16T06:11:05.647Z,97429.25
2022-08-16T06:13:43.261Z,97429.00
2022-08-16T06:16:18.086Z,97421.34
2022-08-16T06:18:47.737Z,97421.63
2022-08-16T06:21:23.798Z,97431.72
2022-08-16T06:23:54.186Z,97432.78
2022-08-16T06:26:23.586Z,97425.69
2022-08-16T06:28:52.737Z,97418.81
2022-08-16T06:31:24.753Z,97415.38
2022-08-16T06:33:54.632Z,97411.69
2022-08-16T06:36:26.644Z,97419.69
2022-08-16T06:39:00.343Z,97423.38
2022-08-16T06:41:28.932Z,97416.78
2022-08-16T06:44:09.243Z,97425.03
2022-08-16T06:46:50.572Z,97421.28
2022-08-16T06:49:19.438Z,97421.06
2022-08-16T06:51:51.063Z,97421.59
2022-08-16T06:54:22.425Z,97417.88
2022-08-16T06:56:54.178Z,97412.06
2022-08-16T06:59:25.707Z,97412.59
2022-08-16T07:01:58.380Z,97417.38
2022-08-16T07:04:33.401Z,97413.94
2022-08-16T07:07:09.882Z,97417.94
2022-08-16T07:09:38.831Z,97411.31
2022-08-16T07:12:08.442Z,97413.97
2022-08-16T07:14:37.663Z,97416.88
2022-08-16T07:17:12.619Z,97409.19
2022-08-16T07:20:29.515Z,97408.16
2022-08-16T07:22:36.539Z,97410.31
2022-08-16T07:25:11.862Z,97415.63
2022-08-16T07:27:41.956Z,97415.63
2022-08-16T07:30:38.570Z,97412.44
2022-08-16T07:33:07.921Z,97413.25
2022-08-16T07:35:37.078Z,97414.56
2022-08-16T07:38:20.060Z,97416.69
2022-08-16T07:41:01.699Z,97412.16
2022-08-16T07:43:31.781Z,97419.88
2022-08-16T07:46:01.582Z,97423.84
2022-08-16T07:48:31.660Z,97419.34
2022-08-16T07:51:06.490Z,97421.19
2022-08-16T07:53:43.898Z,97429.97
2022-08-16T07:56:14.402Z,97428.13
2022-08-16T07:58:43.368Z,97426.25
2022-08-16T08:01:13.456Z,97433.13
2022-08-16T08:03:49.074Z,97430.50
2022-08-16T08:06:18.878Z,97424.09
2022-08-16T08:08:52.395Z,97421.94
2022-08-16T08:11:24.147Z,97432.06
2022-08-16T08:14:03.383Z,97439.22
2022-08-16T08:16:33.631Z,97438.69
2022-08-16T08:19:05.397Z,97433.09
2022-08-16T08:21:59.925Z,97428.31
2022-08-16T08:24:32.053Z,97430.94
2022-08-16T08:27:04.024Z,97424.50
2022-08-16T08:29:37.744Z,97432.50
2022-08-16T08:32:59.690Z,97436.47
2022-08-16T08:35:04.034Z,97432.69
2022-08-16T08:37:33.422Z,97441.75
2022-08-16T08:40:27.339Z,97435.06
2022-08-16T08:42:57.967Z,97430.75
2022-08-16T08:45:48.223Z,97438.97
2022-08-16T08:48:33.771Z,97445.63
2022-08-16T08:51:05.885Z,97454.13
2022-08-16T08:53:38.837Z,97454.06
2022-08-16T08:56:23.656Z,97453.25
2022-08-16T08:59:00.025Z,97451.59
2022-08-16T09:01:36.738Z,97448.91
2022-08-16T09:04:14.673Z,97445.13
2022-08-16T09:06:47.339Z,97445.91
2022-08-16T09:09:17.578Z,97442.94
2022-08-16T09:11:53.337Z,97436.75
2022-08-16T09:14:23.602Z,97451.13
2022-08-16T09:17:00.910Z,97459.31
2022-08-16T09:19:35.170Z,97449.16
2022-08-16T09:22:04.549Z,97453.13
2022-08-16T09:24:48.813Z,97452.50
2022-08-16T09:27:23.506Z,97449.50
2022-08-16T09:29:59.845Z,97436.63
2022-08-16T09:32:31.270Z,97447.50
2022-08-16T09:35:02.605Z,97437.00
2022-08-16T09:37:36.470Z,97446.56
2022-08-16T09:40:32.786Z,97452.34
2022-08-16T09:43:00.023Z,97449.03
2022-08-16T09:45:30.231Z,97446.59
2022-08-16T09:48:00.100Z,97443.63
2022-08-16T09:50:36.848Z,97443.81
2022-08-16T09:53:15.409Z,97450.66
2022-08-16T09:55:50.154Z,97442.09
2022-08-16T09:58:40.702Z,97445.78
2022-08-16T10:01:12.341Z,97443.06
2022-08-16T10:04:01.095Z,97450.75
2022-08-16T10:06:33.218Z,97445.88
2022-08-16T10:09:06.856Z,97444.22
2022-08-16T10:11:57.078Z,97438.03
2022-08-16T10:14:45.846Z,97442.22
2022-08-16T10:17:15.548Z,97437.59
2022-08-16T10:19:47.661Z,97439.47
2022-08-16T10:22:19.416Z,97439.69
2022-08-16T10:24:55.880Z,97446.84
2022-08-16T10:27:29.740Z,97447.31
2022-08-16T10:30:26.142Z,97439.00
2022-08-16T10:32:58.185Z,97448.91
2022-08-16T10:35:32.913Z,97441.59
2022-08-16T10:38:01.886Z,97445.56
2022-08-16T10:40:36.020Z,97449.34
2022-08-16T10:43:08.342Z,97443.47
2022-08-16T10:45:57.261Z,97449.81
2022-08-16T10:48:29.542Z,97445.00
2022-08-16T10:51:00.548Z,97445.22
2022-08-16T10:53:32.784Z,97455.13
2022-08-16T10:56:05.317Z,97461.47
2022-08-16T10:58:54.749Z,97451.50
2022-08-16T11:01:43.022Z,97446.63
2022-08-16T11:05:22.981Z,97450.31
2022-08-16T11:07:43.060Z,97452.72
2022-08-16T11:09:50.831Z,97445.50
2022-08-16T11:12:19.437Z,97454.81
2022-08-16T11:15:18.148Z,97453.41
2022-08-16T11:17:46.898Z,97455.28
2022-08-16T11:20:41.296Z,97458.69
2022-08-16T11:23:11.506Z,97458.91
2022-08-16T11:26:06.553Z,97462.59
2022-08-16T11:29:12.657Z,97459.81
2022-08-16T11:31:19.307Z,97467.78
2022-08-16T11:33:52.537Z,97463.19
2022-08-16T11:36:27.337Z,97455.94
2022-08-16T11:38:57.960Z,97459.63
2022-08-16T11:41:29.330Z,97456.84
2022-08-16T11:43:59.531Z,97453.00
2022-08-16T11:46:44.141Z,97451.50
2022-08-16T11:49:15.623Z,97448.66
2022-08-16T11:51:45.948Z,97449.38
2022-08-16T11:54:21.739Z,97456.22
2022-08-16T11:56:56.995Z,97449.88
2022-08-16T11:59:28.814Z,97453.94
2022-08-16T12:02:30.556Z,97447.94
2022-08-16T12:04:51.817Z,97444.75
2022-08-16T12:07:23.741Z,97446.72
2022-08-16T12:09:53.467Z,97444.16
2022-08-16T12:12:23.422Z,97446.91
2022-08-16T12:14:59.768Z,97445.13
2022-08-16T12:17:31.860Z,97449.47
2022-08-16T12:20:04.945Z,97441.22
2022-08-16T12:22:37.499Z,97440.78
2022-08-16T12:25:11.199Z,97446.34
2022-08-16T12:27:40.888Z,97441.66
2022-08-16T12:30:26.381Z,97443.84
2022-08-16T12:33:03.338Z,97441.66
2022-08-16T12:35:35.774Z,97447.50
2022-08-16T12:38:38.268Z,97442.25
2022-08-16T12:40:57.284Z,97434.91
2022-08-16T12:43:26.992Z,97444.41
2022-08-16T12:46:01.995Z,97448.38
2022-08-16T12:48:50.990Z,97445.88
2022-08-16T12:51:33.083Z,97443.97
2022-08-16T12:54:17.616Z,97446.38
2022-08-16T12:56:46.921Z,97442.75
2022-08-16T12:59:20.178Z,97430.66
2022-08-16T13:01:55.376Z,97438.38
2022-08-16T13:04:31.364Z,97430.22
2022-08-16T13:07:06.132Z,97437.31
2022-08-16T13:09:48.735Z,97436.53
2022-08-16T13:12:20.968Z,97427.28
2022-08-16T13:14:50.687Z,97436.34
2022-08-16T13:17:26.454Z,97431.44
2022-08-16T13:20:08.908Z,97431.78
2022-08-16T13:22:43.160Z,97427.69
2022-08-16T13:25:21.002Z,97427.06
2022-08-16T13:28:14.808Z,97431.81
2022-08-16T13:30:47.637Z,97435.38
2022-08-16T13:33:29.745Z,97433.03
2022-08-16T13:36:01.216Z,97435.28
2022-08-16T13:38:37.433Z,97431.22
2022-08-16T13:41:09.635Z,97434.13
2022-08-16T13:43:40.737Z,97430.97
2022-08-16T13:46:09.679Z,97426.28
2022-08-16T13:48:44.108Z,97427.72
2022-08-16T13:51:17.016Z,97427.56
2022-08-16T13:53:54.537Z,97432.66
2022-08-16T13:56:37.528Z,97433.91
2022-08-16T13:59:19.545Z,97439.31
2022-08-16T14:01:55.511Z,97434.75
2022-08-16T14:04:29.234Z,97433.69
2022-08-16T14:07:00.526Z,97434.47
2022-08-16T14:09:32.339Z,97424.03
2022-08-16T14:12:04.416Z,97428.00
2022-08-16T14:14:42.176Z,97430.66
2022-08-16T14:18:17.093Z,97422.75
2022-08-16T14:20:20.921Z,97420.06
2022-08-16T14:22:52.427Z,97422.41
2022-08-16T14:25:25.826Z,97410.53
2022-08-16T14:27:55.968Z,97416.66
2022-08-16T14:30:26.248Z,97411.13
2022-08-16T14:32:56.563Z,97398.13
2022-08-16T14:35:48.322Z,97407.94
2022-08-16T14:38:23.751Z,97417.75
2022-08-16T14:40:54.978Z,97409.97
2022-08-16T14:43:25.837Z,97404.88
2022-08-16T14:45:59.927Z,97402.50
2022-08-16T14:48:28.520Z,97414.19
2022-08-16T14:50:59.422Z,97403.53
2022-08-16T14:53:31.316Z,97412.38
2022-08-16T14:56:02.932Z,97408.53
2022-08-16T14:58:36.582Z,97406.38
2022-08-16T15:01:09.731Z,97399.03
2022-08-16T15:03:44.658Z,97392.81
2022-08-16T15:06:14.447Z,97401.19
2022-08-16T15:08:43.978Z,97397.50
2022-08-16T15:11:16.721Z,97394.72
2022-08-16T15:13:46.423Z,97396.13
2022-08-16T15:16:16.173Z,97391.44
2022-08-16T15:18:46.480Z,97394.72
2022-08-16T15:21:15.415Z,97385.91
2022-08-16T15:23:44.057Z,97390.09
2022-08-16T15:26:34.522Z,97385.88
2022-08-16T15:29:04.114Z,97382.75
2022-08-16T15:31:32.741Z,97385.56
2022-08-16T15:34:05.009Z,97378.69
2022-08-16T15:36:33.622Z,97373.97
2022-08-16T15:39:29.285Z,97383.09
2022-08-16T15:42:03.591Z,97378.16
2022-08-16T15:44:44.798Z,97378.47
2022-08-16T15:47:26.214Z,97386.00
2022-08-16T15:49:56.178Z,97396.00
2022-08-16T15:52:30.914Z,97392.75
2022-08-16T15:55:13.090Z,97396.31
2022-08-16T15:57:52.844Z,97389.97
2022-08-16T16:00:26.527Z,97391.94
2022-08-16T16:03:04.865Z,97389.72
2022-08-16T16:05:38.477Z,97393.06
2022-08-16T16:08:11.044Z,97396.44
2022-08-16T16:10:43.364Z,97389.41
2022-08-16T16:13:13.403Z,97394.53
2022-08-16T16:15:47.273Z,97391.56
2022-08-16T16:18:19.023Z,97400.91
2022-08-16T16:20:52.052Z,97391.22
2022-08-16T16:23:25.502Z,97392.50
2022-08-16T16:25:55.961Z,97391.38
2022-08-16T16:29:05.339Z,97392.50
2022-08-16T16:31:21.573Z,97386.97
2022-08-16T16:33:56.716Z,97393.16
2022-08-16T16:36:29.477Z,97389.72
2022-08-16T16:38:58.476Z,97394.84
2022-08-16T16:41:30.526Z,97387.63
2022-08-16T16:44:01.301Z,97390.16
2022-08-16T16:46:42.343Z,97386.53
2022-08-16T16:49:16.893Z,97383.22
2022-08-16T16:51:50.187Z,97384.69
2022-08-16T16:54:27.551Z,97388.34
2022-08-16T16:56:59.947Z,97379.66
2022-08-16T16:59:28.711Z,97382.22
2022-08-16T17:02:39.367Z,97391.28
2022-08-16T17:04:49.788Z,97389.56
2022-08-16T17:07:23.998Z,97387.66
2022-08-16T17:09:54.156Z,97392.28
2022-08-16T17:12:24.615Z,97391.06
2022-08-16T17:14:55.077Z,97390.13
2022-08-16T17:17:25.524Z,97387.59
2022-08-16T17:19:54.552Z,97381.56
2022-08-16T17:22:24.424Z,97387.94
2022-08-16T17:25:01.907Z,97385.88
2022-08-16T17:27:34.525Z,97389.41
2022-08-16T17:30:15.987Z,97387.06
2022-08-16T17:32:54.655Z,97395.97
2022-08-16T17:35:33.987Z,97383.94
2022-08-16T17:38:06.166Z,97397.41
2022-08-16T17:40:47.552Z,97398.50
2022-08-16T17:43:31.134Z,97392.03
2022-08-16T17:46:01.166Z,97393.00
2022-08-16T17:48:32.279Z,97401.88
2022-08-16T17:51:01.634Z,97402.19
2022-08-16T17:53:32.439Z,97400.59
2022-08-16T17:56:01.698Z,97401.06
2022-08-16T17:58:30.420Z,97403.41
2022-08-16T18:01:01.848Z,97396.28
2022-08-16T18:04:08.833Z,97390.88
2022-08-16T18:06:28.262Z,97387.41
2022-08-16T18:09:02.529Z,97389.28
2022-08-16T18:11:36.124Z,97389.75
2022-08-16T18:14:13.033Z,97398.53
2022-08-16T18:16:41.825Z,97398.97
2022-08-16T18:19:12.243Z,97401.31
2022-08-16T18:21:54.907Z,97393.09
2022-08-16T18:24:28.446Z,97396.72
2022-08-16T18:27:25.314Z,97397.16
2022-08-16T18:29:48.422Z,97393.81
2022-08-16T18:32:25.067Z,97398.22
2022-08-16T18:34:55.485Z,97401.47
2022-08-16T18:37:27.005Z,97397.25
2022-08-16T18:39:56.882Z,97406.06
2022-08-16T18:42:27.675Z,97403.44
2022-08-16T18:44:56.263Z,97407.03
2022-08-16T18:47:24.879Z,97406.06
2022-08-16T18:49:56.349Z,97411.84
2022-08-16T18:52:26.174Z,97409.41
2022-08-16T18:55:02.016Z,97415.19
2022-08-16T18:57:43.380Z,97426.31
2022-08-16T19:00:14.741Z,97420.75
2022-08-16T19:02:58.436Z,97413.31
2022-08-16T19:05:35.091Z,97420.59
2022-08-16T19:08:04.765Z,97431.03
2022-08-16T19:10:36.944Z,97423.88
2022-08-16T19:13:09.616Z,97433.25
2022-08-16T19:15:39.974Z,97434.63
2022-08-16T19:18:09.807Z,97443.78
2022-08-16T19:20:44.724Z,97447.81
2022-08-16T19:23:16.371Z,97445.84
2022-08-16T19:25:50.720Z,97443.56
2022-08-16T19:28:49.541Z,97451.88
2022-08-16T19:31:20.628Z,97453.34
2022-08-16T19:33:54.844Z,97459.22
2022-08-16T19:36:35.875Z,97460.16
2022-08-16T19:39:09.909Z,97466.41
2022-08-16T19:41:42.933Z,97466.41
2022-08-16T19:44:13.583Z,97467.88
2022-08-16T19:46:44.909Z,97478.16
2022-08-16T19:49:16.311Z,97488.34
2022-08-16T19:51:48.521Z,97490.63
2022-08-16T19:54:17.645Z,97486.44
2022-08-16T19:56:47.981Z,97485.88
2022-08-16T19:59:20.034Z,97492.25
2022-08-16T20:01:53.656Z,97507.63
2022-08-16T20:04:23.505Z,97514.94
2022-08-16T20:06:54.384Z,97511.97
2022-08-16T20:09:24.198Z,97512.53
2022-08-16T20:11:55.700Z,97516.94
2022-08-16T20:14:26.467Z,97509.22
2022-08-16T20:16:59.356Z,97520.53
2022-08-16T20:19:29.823Z,97525.66
2022-08-16T20:22:49.690Z,97521.44
2022-08-16T20:25:17.418Z,97517.88
2022-08-16T20:27:47.119Z,97525.72
2022-08-16T20:30:17.521Z,97527.63
2022-08-16T20:32:47.761Z,97523.09
2022-08-16T20:35:21.418Z,97530.09
2022-08-16T20:37:51.497Z,97524.50
2022-08-16T20:40:34.703Z,97532.94
2022-08-16T20:43:08.429Z,97524.41
2022-08-16T20:45:38.428Z,97531.44
2022-08-16T20:48:08.451Z,97524.22
2022-08-16T20:50:37.750Z,97519.97
2022-08-16T20:53:09.121Z,97522.97
2022-08-16T20:55:40.106Z,97530.47
2022-08-16T20:58:09.078Z,97533.19
2022-08-16T21:00:40.014Z,97532.72
2022-08-16T21:03:09.469Z,97533.50
2022-08-16T21:05:38.654Z,97535.44
2022-08-16T21:08:51.042Z,97537.06
2022-08-16T21:11:02.226Z,97529.91
2022-08-16T21:13:32.632Z,97532.88
2022-08-16T21:16:03.515Z,97538.59
2022-08-16T21:18:32.192Z,97541.81
2022-08-16T21:21:01.011Z,97542.09
2022-08-16T21:23:30.948Z,97544.28
2022-08-16T21:25:59.892Z,97548.06
2022-08-16T21:28:40.836Z,97539.81
2022-08-16T21:31:11.916Z,97539.53
2022-08-16T21:33:40.890Z,97536.91
2022-08-16T21:36:10.533Z,97537.22
2022-08-16T21:38:41.183Z,97534.34
2022-08-16T21:41:12.936Z,97535.72
2022-08-16T21:43:41.787Z,97528.34
2022-08-16T21:46:12.345Z,97535.81
2022-08-16T21:48:41.622Z,97533.44
2022-08-16T21:51:16.228Z,97530.50
2022-08-16T21:53:47.283Z,97526.50
2022-08-16T21:56:17.619Z,97522.78
2022-08-16T21:58:46.411Z,97520.16
2022-08-16T22:01:23.003Z,97522.81
2022-08-16T22:04:35.498Z,97525.47
2022-08-16T22:06:42.311Z,97531.91
2022-08-16T22:09:16.266Z,97528.19
2022-08-16T22:11:46.156Z,97527.91
2022-08-16T22:14:17.726Z,97539.69
2022-08-16T22:16:47.221Z,97538.06
2022-08-16T22:19:16.131Z,97540.19
2022-08-16T22:21:45.023Z,97543.66
2022-08-16T22:24:16.252Z,97543.13
2022-08-16T22:26:45.860Z,97536.50
2022-08-16T22:29:15.916Z,97540.78
2022-08-16T22:31:45.291Z,97524.81
2022-08-16T22:34:15.049Z,97534.66
2022-08-16T22:36:44.034Z,97539.75
2022-08-16T22:39:15.771Z,97541.34
2022-08-16T22:41:45.798Z,97542.41
2022-08-16T22:44:15.204Z,97559.69
2022-08-16T22:46:44.718Z,97558.09
2022-08-16T22:49:14.480Z,97548.78
2022-08-16T22:51:44.778Z,97544.56
2022-08-16T22:54:47.857Z,97545.59
2022-08-16T22:57:05.409Z,97553.88
2022-08-16T22:59:34.582Z,97553.59
2022-08-16T23:02:06.430Z,97548.81
2022-08-16T23:04:35.889Z,97561.53
2022-08-16T23:07:08.826Z,97548.78
2022-08-16T23:09:38.665Z,97555.41
2022-08-16T23:12:08.988Z,97561.56
2022-08-16T23:14:37.532Z,97556.50
2022-08-16T23:17:07.499Z,97556.50
2022-08-16T23:19:36.651Z,97559.69
2022-08-16T23:22:08.105Z,97556.22
2022-08-16T23:24:40.968Z,97547.47
2022-08-16T23:27:25.427Z,97549.59
2022-08-16T23:29:57.078Z,97547.44
2022-08-16T23:32:26.136Z,97548.25
2022-08-16T23:34:56.020Z,97549.56
2022-08-16T23:37:27.006Z,97549.03
2022-08-16T23:39:56.880Z,97553.28
2022-08-16T23:42:53.063Z,97552.75
2022-08-16T23:45:13.937Z,97555.13
2022-08-16T23:47:45.212Z,97545.56
2022-08-16T23:50:13.901Z,97548.44
2022-08-16T23:52:59.300Z,97552.97
2022-08-16T23:55:31.127Z,97549.53
2022-08-16T23:58:00.317Z,97551.66
